Terminal Aerodrome Forecast
Issued by NWS Riverton, WY

Home | Current Version | Previous Version | Text Only | Print | Product List | Glossary On
Versions: 1 2 3 4 5 6 7 8 9 10 11 12
000
FTUS45 KRIW 261124
TAFRIW
TAF
KRIW 261124Z 2612/2712 VRB04KT P6SM SCT020 OVC050
      TEMPO 2612/2614 BKN020
     FM261700 VRB06KT P6SM SCT050 SCT100
     FM270000 30011KT P6SM SCT080 BKN150=

USA.gov is the U.S. government's official web portal to all federal, state and local government web resources and services.